createdAt,value
2018-12-23T00:01:43.738Z,8.57
2018-12-23T00:04:13.038Z,8.50
2018-12-23T00:06:42.078Z,10.10
2018-12-23T00:09:12.024Z,9.17
2018-12-23T00:11:41.152Z,8.73
2018-12-23T00:14:10.484Z,10.23
2018-12-23T00:16:39.534Z,9.53
2018-12-23T00:19:08.605Z,8.63
2018-12-23T00:21:38.108Z,9.63
2018-12-23T00:24:08.546Z,8.90
2018-12-23T00:26:37.859Z,8.53
2018-12-23T00:29:07.000Z,8.63
2018-12-23T00:31:36.601Z,10.57
2018-12-23T00:34:05.719Z,9.17
2018-12-23T00:36:35.254Z,9.07
2018-12-23T00:39:06.753Z,11.47
2018-12-23T00:41:39.692Z,9.83
2018-12-23T00:44:09.009Z,10.20
2018-12-23T00:46:38.164Z,10.23
2018-12-23T00:49:07.602Z,10.30
2018-12-23T00:51:36.643Z,9.37
2018-12-23T00:54:06.674Z,9.77
2018-12-23T00:56:36.181Z,8.90
2018-12-23T00:59:05.797Z,10.10
2018-12-23T01:01:35.145Z,10.20
2018-12-23T01:04:04.437Z,10.63
2018-12-23T01:06:33.471Z,9.37
2018-12-23T01:09:02.590Z,10.30
2018-12-23T01:11:31.726Z,9.67
2018-12-23T01:14:00.859Z,9.67
2018-12-23T01:16:30.605Z,9.10
2018-12-23T01:18:59.652Z,10.43
2018-12-23T01:21:28.674Z,10.87
2018-12-23T01:23:57.804Z,10.20
2018-12-23T01:26:27.533Z,12.43
2018-12-23T01:28:57.687Z,10.80
2018-12-23T01:31:26.714Z,11.27
2018-12-23T01:33:56.031Z,11.33
2018-12-23T01:36:25.433Z,13.50
2018-12-23T01:38:54.460Z,12.90
2018-12-23T01:41:23.708Z,13.70
2018-12-23T01:43:53.012Z,13.30
2018-12-23T01:46:22.080Z,13.03
2018-12-23T01:48:51.944Z,13.77
2018-12-23T01:51:21.098Z,13.37
2018-12-23T01:53:51.481Z,13.43
2018-12-23T01:56:20.653Z,14.40
2018-12-23T01:58:49.788Z,14.90
2018-12-23T02:01:18.937Z,14.20
2018-12-23T02:03:48.157Z,14.80
2018-12-23T02:06:19.182Z,14.17
2018-12-23T02:08:53.987Z,14.53
2018-12-23T02:11:28.717Z,13.00
2018-12-23T02:14:03.489Z,12.70
2018-12-23T02:16:38.337Z,12.87
2018-12-23T02:19:13.496Z,11.67
2018-12-23T02:21:48.735Z,12.03
2018-12-23T02:24:19.724Z,11.33
2018-12-23T02:26:56.036Z,11.37
2018-12-23T02:29:30.966Z,10.17
2018-12-23T02:32:05.780Z,9.90
2018-12-23T02:34:41.786Z,9.47
2018-12-23T02:37:16.490Z,9.70
2018-12-23T02:39:51.444Z,9.47
2018-12-23T02:42:26.277Z,9.43
2018-12-23T02:45:01.016Z,9.73
2018-12-23T02:47:32.128Z,8.97
2018-12-23T02:50:24.229Z,8.90
2018-12-23T02:52:53.231Z,9.50
2018-12-23T02:55:22.269Z,9.47
2018-12-23T02:57:51.344Z,8.90
2018-12-23T03:00:20.701Z,9.33
2018-12-23T03:02:49.725Z,10.17
2018-12-23T03:05:18.881Z,9.43
2018-12-23T03:07:48.596Z,8.73
2018-12-23T03:10:17.699Z,9.07
2018-12-23T03:12:46.769Z,8.93
2018-12-23T03:15:15.804Z,9.70
2018-12-23T03:17:49.518Z,8.40
2018-12-23T03:20:18.552Z,9.13
2018-12-23T03:22:48.681Z,9.47
2018-12-23T03:25:19.080Z,9.00
2018-12-23T03:27:48.558Z,9.43
2018-12-23T03:30:17.667Z,10.03
2018-12-23T03:32:46.768Z,9.50
2018-12-23T03:35:16.100Z,8.77
2018-12-23T03:37:45.221Z,10.33
2018-12-23T03:40:14.466Z,10.27
2018-12-23T03:42:43.805Z,10.20
2018-12-23T03:45:12.944Z,10.00
2018-12-23T03:47:42.226Z,11.40
2018-12-23T03:50:11.394Z,10.70
2018-12-23T03:52:40.432Z,10.73
2018-12-23T03:55:09.589Z,11.67
2018-12-23T03:57:38.773Z,11.47
2018-12-23T04:00:08.108Z,11.97
2018-12-23T04:02:37.992Z,11.93
2018-12-23T04:05:08.005Z,11.37
2018-12-23T04:07:37.064Z,11.90
2018-12-23T04:10:06.320Z,11.67
2018-12-23T04:12:35.338Z,10.40
2018-12-23T04:15:05.070Z,11.57
2018-12-23T04:17:34.098Z,11.00
2018-12-23T04:20:03.150Z,11.77
2018-12-23T04:22:32.567Z,11.90
2018-12-23T04:25:03.487Z,11.93
2018-12-23T04:27:33.401Z,11.77
2018-12-23T04:30:03.911Z,11.80
2018-12-23T04:32:34.374Z,12.60
2018-12-23T04:35:03.894Z,11.83
2018-12-23T04:37:33.130Z,12.53
2018-12-23T04:40:02.300Z,11.47
2018-12-23T04:42:31.863Z,12.27
2018-12-23T04:45:02.725Z,11.33
2018-12-23T04:47:32.104Z,11.90
2018-12-23T04:50:01.232Z,12.10
2018-12-23T04:52:30.581Z,10.73
2018-12-23T04:54:59.605Z,10.13
2018-12-23T04:57:29.887Z,10.03
2018-12-23T04:59:59.386Z,11.43
2018-12-23T05:02:28.420Z,10.70
2018-12-23T05:04:57.711Z,10.20
2018-12-23T05:07:26.729Z,11.10
2018-12-23T05:09:56.208Z,11.50
2018-12-23T05:12:25.245Z,10.17
2018-12-23T05:14:54.640Z,10.53
2018-12-23T05:17:23.719Z,10.07
2018-12-23T05:19:52.937Z,10.40
2018-12-23T05:22:22.260Z,9.57
2018-12-23T05:24:51.359Z,10.03
2018-12-23T05:27:21.191Z,9.37
2018-12-23T05:29:50.814Z,9.30
2018-12-23T05:32:19.898Z,10.00
2018-12-23T05:34:48.914Z,9.13
2018-12-23T05:37:18.046Z,8.90
2018-12-23T05:39:47.985Z,10.13
2018-12-23T05:42:17.047Z,9.70
2018-12-23T05:44:46.255Z,9.93
2018-12-23T05:47:15.310Z,11.10
2018-12-23T05:49:44.540Z,10.03
2018-12-23T05:52:13.603Z,10.80
2018-12-23T05:54:42.657Z,9.73
2018-12-23T05:57:11.959Z,10.07
2018-12-23T05:59:40.997Z,10.07
2018-12-23T06:02:10.701Z,9.60
2018-12-23T06:04:39.872Z,9.93
2018-12-23T06:07:09.371Z,9.87
2018-12-23T06:09:38.661Z,10.70
2018-12-23T06:12:07.831Z,10.43
2018-12-23T06:14:36.896Z,9.70
2018-12-23T06:17:06.141Z,11.10
2018-12-23T06:19:35.196Z,10.73
2018-12-23T06:22:04.274Z,10.73
2018-12-23T06:24:33.389Z,12.17
2018-12-23T06:27:02.511Z,11.30
2018-12-23T06:29:31.934Z,11.20
2018-12-23T06:32:01.014Z,10.83
2018-12-23T06:34:30.630Z,12.27
2018-12-23T06:36:59.699Z,11.97
2018-12-23T06:39:29.405Z,12.20
2018-12-23T06:41:58.436Z,12.87
2018-12-23T06:44:28.870Z,12.83
2018-12-23T06:46:58.039Z,12.23
2018-12-23T06:49:27.108Z,13.00
2018-12-23T06:51:56.515Z,12.47
2018-12-23T06:54:25.586Z,12.83
2018-12-23T06:56:54.702Z,12.57
2018-12-23T06:59:23.942Z,11.27
2018-12-23T07:01:53.028Z,11.60
2018-12-23T07:04:22.372Z,12.90
2018-12-23T07:06:51.411Z,12.87
2018-12-23T07:09:20.674Z,13.27
2018-12-23T07:11:49.846Z,13.70
2018-12-23T07:14:19.190Z,13.37
2018-12-23T07:16:48.304Z,13.33
2018-12-23T07:19:17.589Z,13.43
2018-12-23T07:21:46.764Z,13.80
2018-12-23T07:24:15.856Z,12.77
2018-12-23T07:26:44.914Z,12.77
2018-12-23T07:29:13.921Z,14.07
2018-12-23T07:31:42.978Z,12.60
2018-12-23T07:34:12.231Z,13.57
2018-12-23T07:36:49.350Z,12.30
2018-12-23T07:39:12.340Z,11.67
2018-12-23T07:41:41.477Z,12.60
2018-12-23T07:44:10.494Z,11.97
2018-12-23T07:46:39.663Z,12.60
2018-12-23T07:49:08.882Z,12.03
2018-12-23T07:51:38.230Z,12.47
2018-12-23T07:54:07.330Z,12.17
2018-12-23T07:56:36.370Z,12.00
2018-12-23T07:59:05.533Z,11.60
2018-12-23T08:01:34.693Z,11.37
2018-12-23T08:04:04.122Z,12.47
2018-12-23T08:06:33.347Z,11.50
2018-12-23T08:09:06.489Z,11.77
2018-12-23T08:11:35.573Z,11.50
2018-12-23T08:14:04.746Z,12.10
2018-12-23T08:16:34.395Z,12.03
2018-12-23T08:19:03.461Z,12.33
2018-12-23T08:21:33.215Z,11.77
2018-12-23T08:24:02.291Z,11.70
2018-12-23T08:26:31.567Z,12.00
2018-12-23T08:29:00.838Z,12.10
2018-12-23T08:31:29.954Z,13.50
2018-12-23T08:33:59.229Z,12.03
2018-12-23T08:36:28.320Z,13.53
2018-12-23T08:38:58.213Z,12.87
2018-12-23T08:41:27.471Z,13.50
2018-12-23T08:43:56.537Z,13.43
2018-12-23T08:46:26.359Z,14.03
2018-12-23T08:48:55.424Z,13.33
2018-12-23T08:51:24.503Z,13.47
2018-12-23T08:53:53.567Z,14.23
2018-12-23T08:56:22.854Z,13.70
2018-12-23T08:58:51.953Z,14.37
2018-12-23T09:01:20.984Z,14.73
2018-12-23T09:03:50.577Z,13.70
2018-12-23T09:06:19.875Z,14.53
2018-12-23T09:08:53.496Z,14.73
2018-12-23T09:11:23.489Z,13.87
2018-12-23T09:13:52.553Z,15.40
2018-12-23T09:16:21.627Z,15.07
2018-12-23T09:18:50.694Z,14.87
2018-12-23T09:21:19.766Z,15.10
2018-12-23T09:23:48.985Z,15.03
2018-12-23T09:26:18.021Z,14.47
2018-12-23T09:28:47.246Z,16.30
2018-12-23T09:31:16.425Z,15.80
2018-12-23T09:33:45.482Z,15.03
2018-12-23T09:36:14.729Z,15.13
2018-12-23T09:38:43.824Z,16.47
2018-12-23T09:41:13.124Z,16.40
2018-12-23T09:43:42.318Z,15.47
2018-12-23T09:46:11.564Z,14.90
2018-12-23T09:48:40.830Z,15.50
2018-12-23T09:51:10.018Z,17.00
2018-12-23T09:53:39.198Z,16.50
2018-12-23T09:56:08.983Z,16.60
2018-12-23T09:58:38.075Z,15.73
2018-12-23T10:01:07.286Z,14.53
2018-12-23T10:03:36.617Z,15.43
2018-12-23T10:06:06.106Z,15.27
2018-12-23T10:08:35.681Z,15.17
2018-12-23T10:11:04.820Z,13.43
2018-12-23T10:13:34.459Z,13.83
2018-12-23T10:16:03.589Z,12.97
2018-12-23T10:18:32.684Z,13.30
2018-12-23T10:21:01.747Z,12.23
2018-12-23T10:23:30.817Z,12.20
2018-12-23T10:26:00.071Z,12.33
2018-12-23T10:28:29.332Z,11.47
2018-12-23T10:30:58.612Z,12.07
2018-12-23T10:33:27.647Z,13.17
2018-12-23T10:35:56.658Z,12.93
2018-12-23T10:38:26.227Z,13.27
2018-12-23T10:40:55.316Z,12.53
2018-12-23T10:43:24.415Z,10.60
2018-12-23T10:45:53.950Z,10.57
2018-12-23T10:48:23.278Z,10.57
2018-12-23T10:50:52.450Z,10.53
2018-12-23T10:53:21.549Z,10.13
2018-12-23T10:55:50.692Z,9.93
2018-12-23T10:58:20.571Z,9.97
2018-12-23T11:00:49.958Z,9.70
2018-12-23T11:03:19.050Z,8.60
2018-12-23T11:05:48.219Z,9.13
2018-12-23T11:08:17.668Z,9.17
2018-12-23T11:10:46.818Z,8.10
2018-12-23T11:13:15.930Z,10.03
2018-12-23T11:15:45.198Z,8.13
2018-12-23T11:18:14.467Z,8.47
2018-12-23T11:20:43.873Z,7.90
2018-12-23T11:23:13.129Z,7.40
2018-12-23T11:25:42.385Z,7.53
2018-12-23T11:28:11.788Z,8.10
2018-12-23T11:30:40.836Z,7.53
2018-12-23T11:33:10.778Z,8.03
2018-12-23T11:35:40.267Z,8.40
2018-12-23T11:38:10.527Z,8.17
2018-12-23T11:40:40.420Z,8.13
2018-12-23T11:43:09.569Z,7.73
2018-12-23T11:45:38.665Z,6.90
2018-12-23T11:48:12.593Z,8.13
2018-12-23T11:50:41.857Z,8.10
2018-12-23T11:53:11.088Z,8.20
2018-12-23T11:55:40.185Z,8.30
2018-12-23T11:58:09.547Z,7.50
2018-12-23T12:00:38.625Z,6.97
2018-12-23T12:03:07.714Z,6.87
2018-12-23T12:05:37.080Z,7.97
2018-12-23T12:08:06.151Z,7.47
2018-12-23T12:10:35.471Z,7.20
2018-12-23T12:13:04.536Z,6.90
2018-12-23T12:15:34.294Z,6.80
2018-12-23T12:18:03.737Z,6.07
2018-12-23T12:20:33.191Z,6.17
2018-12-23T12:23:02.612Z,4.97
2018-12-23T12:25:31.684Z,4.60
2018-12-23T12:28:02.859Z,5.10
2018-12-23T12:30:31.918Z,4.40
2018-12-23T12:33:01.068Z,4.37
2018-12-23T12:35:30.127Z,4.40
2018-12-23T12:37:59.503Z,3.67
2018-12-23T12:40:28.846Z,3.30
2018-12-23T12:42:58.238Z,3.30
2018-12-23T12:45:27.420Z,3.30
2018-12-23T12:47:56.755Z,3.87
2018-12-23T12:50:26.330Z,3.00
2018-12-23T12:52:55.732Z,3.50
2018-12-23T12:55:24.799Z,2.67
2018-12-23T12:57:54.191Z,2.80
2018-12-23T13:00:23.279Z,2.90
2018-12-23T13:02:52.381Z,3.00
2018-12-23T13:05:21.614Z,2.97
2018-12-23T13:07:50.758Z,2.90
2018-12-23T13:10:20.216Z,3.70
2018-12-23T13:12:49.394Z,3.50
2018-12-23T13:15:18.715Z,3.20
2018-12-23T13:17:48.189Z,3.10
2018-12-23T13:20:18.106Z,3.20
2018-12-23T13:22:47.475Z,3.10
2018-12-23T13:25:16.548Z,4.20
2018-12-23T13:27:46.388Z,3.73
2018-12-23T13:30:16.052Z,3.77
2018-12-23T13:32:45.188Z,4.00
2018-12-23T13:35:14.441Z,3.20
2018-12-23T13:37:44.304Z,3.87
2018-12-23T13:40:21.746Z,3.77
2018-12-23T13:45:11.669Z,4.00
2018-12-23T13:47:52.153Z,3.40
2018-12-23T13:50:37.608Z,3.60
2018-12-23T13:53:49.052Z,4.07
2018-12-23T13:58:32.654Z,3.70
2018-12-23T14:01:32.977Z,3.90
2018-12-23T14:04:14.000Z,4.13
2018-12-23T14:07:06.284Z,4.30
2018-12-23T14:09:45.651Z,4.27
2018-12-23T14:12:14.795Z,4.50
2018-12-23T14:14:44.059Z,4.60
2018-12-23T14:17:13.992Z,4.10
2018-12-23T14:19:43.335Z,4.10
2018-12-23T14:22:12.457Z,4.60
2018-12-23T14:24:41.829Z,4.53
2018-12-23T14:27:10.884Z,5.13
2018-12-23T14:29:40.111Z,5.60
2018-12-23T14:32:09.326Z,5.43
2018-12-23T14:34:38.759Z,4.80
2018-12-23T14:37:07.899Z,4.57
2018-12-23T14:39:37.088Z,5.10
2018-12-23T14:42:07.194Z,5.90
2018-12-23T14:44:36.374Z,5.40
2018-12-23T14:47:05.663Z,6.70
2018-12-23T14:49:34.823Z,7.30
2018-12-23T14:52:04.205Z,7.20
2018-12-23T14:54:36.209Z,7.20
2018-12-23T14:57:06.121Z,8.23
2018-12-23T14:59:35.414Z,9.10
2018-12-23T15:02:04.476Z,10.17
2018-12-23T15:04:33.844Z,10.23
2018-12-23T15:07:02.882Z,11.27
2018-12-23T15:09:34.377Z,10.47
2018-12-23T15:12:03.047Z,11.57
2018-12-23T15:14:32.149Z,11.13
2018-12-23T15:17:01.433Z,11.33
2018-12-23T15:19:30.495Z,11.97
2018-12-23T15:21:59.627Z,12.33
2018-12-23T15:24:28.922Z,12.00
2018-12-23T15:26:58.001Z,14.33
2018-12-23T15:29:27.425Z,14.47
2018-12-23T15:31:56.579Z,14.87
2018-12-23T15:34:26.399Z,16.37
2018-12-23T15:36:55.773Z,17.03
2018-12-23T15:39:24.818Z,17.57
2018-12-23T15:41:53.932Z,18.87
2018-12-23T15:44:23.014Z,20.27
2018-12-23T15:46:52.191Z,20.57
2018-12-23T15:49:21.394Z,20.63
2018-12-23T15:51:50.588Z,21.80
2018-12-23T15:54:19.883Z,22.70
2018-12-23T15:56:49.184Z,24.30
2018-12-23T15:59:18.417Z,23.93
2018-12-23T16:01:47.840Z,23.40
2018-12-23T16:04:17.185Z,24.50
2018-12-23T16:06:46.287Z,25.27
2018-12-23T16:09:16.192Z,25.83
2018-12-23T16:11:45.395Z,25.37
2018-12-23T16:14:14.695Z,25.93
2018-12-23T16:16:43.861Z,24.83
2018-12-23T16:19:13.072Z,24.83
2018-12-23T16:21:42.172Z,24.07
2018-12-23T16:24:11.316Z,24.30
2018-12-23T16:26:40.450Z,25.27
2018-12-23T16:29:09.583Z,24.30
2018-12-23T16:31:39.520Z,24.97
2018-12-23T16:34:09.266Z,22.60
2018-12-23T16:36:38.336Z,23.43
2018-12-23T16:39:08.404Z,23.00
2018-12-23T16:41:37.761Z,22.83
2018-12-23T16:44:06.848Z,23.33
2018-12-23T16:46:36.159Z,22.90
2018-12-23T16:49:05.697Z,22.27
2018-12-23T16:51:35.011Z,21.50
2018-12-23T16:54:04.187Z,20.70
2018-12-23T16:56:33.309Z,21.00
2018-12-23T16:59:02.724Z,19.90
2018-12-23T17:01:31.767Z,19.77
2018-12-23T17:04:01.146Z,18.83
2018-12-23T17:06:30.225Z,20.10
2018-12-23T17:08:59.677Z,22.10
2018-12-23T17:11:29.603Z,21.80
2018-12-23T17:13:58.726Z,21.87
2018-12-23T17:16:27.916Z,21.83
2018-12-23T17:18:56.999Z,22.63
2018-12-23T17:21:26.787Z,23.67
2018-12-23T17:23:55.954Z,23.30
2018-12-23T17:26:25.063Z,23.13
2018-12-23T17:28:54.160Z,21.67
2018-12-23T17:31:23.329Z,22.23
2018-12-23T17:33:52.466Z,23.17
2018-12-23T17:36:21.579Z,21.87
2018-12-23T17:38:50.680Z,22.10
2018-12-23T17:41:19.767Z,22.60
2018-12-23T17:43:49.277Z,22.30
2018-12-23T17:46:18.573Z,21.40
2018-12-23T17:48:47.719Z,21.70
2018-12-23T17:51:16.913Z,20.63
2018-12-23T17:53:46.353Z,19.90
2018-12-23T17:56:15.451Z,19.53
2018-12-23T17:58:44.702Z,20.40
2018-12-23T18:01:13.794Z,19.10
2018-12-23T18:03:43.636Z,18.57
2018-12-23T18:06:13.191Z,19.80
2018-12-23T18:08:42.573Z,18.77
2018-12-23T18:11:11.734Z,17.73
2018-12-23T18:13:41.003Z,18.03
2018-12-23T18:16:10.126Z,17.07
2018-12-23T18:18:39.360Z,18.67
2018-12-23T18:21:08.479Z,18.40
2018-12-23T18:23:37.528Z,19.00
2018-12-23T18:26:06.679Z,17.87
2018-12-23T18:28:35.963Z,17.87
2018-12-23T18:31:05.176Z,18.10
2018-12-23T18:33:35.015Z,16.87
2018-12-23T18:36:04.352Z,16.20
2018-12-23T18:38:33.419Z,16.37
2018-12-23T18:41:02.514Z,15.47
2018-12-23T18:43:31.581Z,15.33
2018-12-23T18:46:00.881Z,15.30
2018-12-23T18:48:29.990Z,14.43
2018-12-23T18:50:59.135Z,14.23
2018-12-23T18:53:28.191Z,14.47
2018-12-23T18:55:57.284Z,15.07
2018-12-23T18:58:26.464Z,14.80
2018-12-23T19:00:59.045Z,14.47
2018-12-23T19:03:28.923Z,14.20
2018-12-23T19:05:58.017Z,13.97
2018-12-23T19:08:38.464Z,14.13
2018-12-23T19:11:19.822Z,14.17
2018-12-23T19:14:18.052Z,15.03
2018-12-23T19:17:57.708Z,14.23
2018-12-23T19:20:38.163Z,15.33
2018-12-23T19:24:22.716Z,15.77
2018-12-23T19:27:01.952Z,16.20
2018-12-23T19:40:00.953Z,16.37
2018-12-23T19:43:16.506Z,16.20
2018-12-23T19:47:17.795Z,19.67
2018-12-23T19:49:55.965Z,18.73
2018-12-23T19:54:04.680Z,19.47
2018-12-23T19:57:48.700Z,20.67
2018-12-23T20:00:46.589Z,21.93
2018-12-23T20:03:29.153Z,21.83
2018-12-23T20:06:13.571Z,20.83
2018-12-23T20:08:53.945Z,19.90
2018-12-23T20:13:46.044Z,15.33
2018-12-23T20:17:31.926Z,13.97
2018-12-23T20:20:12.209Z,15.23
2018-12-23T20:22:57.957Z,16.17
2018-12-23T20:25:41.164Z,16.43
2018-12-23T20:28:25.415Z,17.30
2018-12-23T20:33:04.239Z,16.87
2018-12-23T20:35:51.429Z,11.93
2018-12-23T20:40:51.701Z,13.17
2018-12-23T20:43:32.354Z,7.57
2018-12-23T20:46:12.697Z,7.77
2018-12-23T20:49:55.849Z,6.53
2018-12-23T20:52:46.635Z,5.80
2018-12-23T20:55:28.561Z,6.00
2018-12-23T20:59:05.101Z,6.90
2018-12-23T21:02:02.308Z,6.70
2018-12-23T21:04:46.558Z,6.70
2018-12-23T21:07:31.980Z,6.30
2018-12-23T21:12:16.823Z,5.97
2018-12-23T21:15:29.009Z,5.13
2018-12-23T21:18:31.606Z,5.23
2018-12-23T21:24:17.659Z,5.97
2018-12-23T21:29:03.910Z,9.53
2018-12-23T21:31:48.739Z,9.47
2018-12-23T21:34:34.967Z,8.10
2018-12-23T21:37:21.831Z,5.40
2018-12-23T21:40:01.891Z,4.87
2018-12-23T21:42:42.869Z,5.47
2018-12-23T21:47:44.103Z,6.80
2018-12-23T21:50:27.817Z,6.37
2018-12-23T21:53:29.993Z,6.20
2018-12-23T21:57:24.051Z,7.60
2018-12-23T22:00:37.047Z,8.00
2018-12-23T22:04:08.860Z,8.03
2018-12-23T22:07:11.686Z,9.13
2018-12-23T22:10:16.879Z,9.40
2018-12-23T22:13:27.551Z,9.73
2018-12-23T22:15:57.748Z,10.37
2018-12-23T22:18:28.311Z,10.30
2018-12-23T22:20:58.489Z,8.77
2018-12-23T22:23:29.937Z,8.43
2018-12-23T22:26:02.258Z,7.53
2018-12-23T22:28:32.385Z,8.33
2018-12-23T22:31:02.438Z,9.10
2018-12-23T22:33:32.544Z,10.43
2018-12-23T22:36:02.742Z,10.60
2018-12-23T22:38:32.798Z,11.20
2018-12-23T22:41:09.674Z,11.63
2018-12-23T22:43:40.000Z,12.00
2018-12-23T22:46:12.854Z,12.20
2018-12-23T22:48:42.887Z,13.53
2018-12-23T22:51:14.282Z,14.00
2018-12-23T22:53:44.359Z,14.67
2018-12-23T22:56:14.423Z,15.57
2018-12-23T22:58:44.798Z,15.30
2018-12-23T23:01:18.901Z,15.13
2018-12-23T23:03:52.506Z,16.07
2018-12-23T23:06:22.822Z,17.57
2018-12-23T23:08:52.869Z,17.47
2018-12-23T23:11:22.911Z,17.83
2018-12-23T23:13:52.984Z,15.80
2018-12-23T23:16:23.475Z,15.83
2018-12-23T23:18:53.508Z,14.60
2018-12-23T23:21:25.275Z,12.03
2018-12-23T23:23:55.308Z,12.00
2018-12-23T23:26:25.368Z,10.43
2018-12-23T23:28:55.511Z,11.90
2018-12-23T23:31:25.698Z,12.37
2018-12-23T23:33:55.820Z,12.37
2018-12-23T23:36:28.952Z,10.23
2018-12-23T23:38:59.009Z,10.27
2018-12-23T23:41:29.119Z,8.47
2018-12-23T23:43:59.236Z,8.00
2018-12-23T23:46:29.484Z,9.10
2018-12-23T23:49:01.536Z,8.77
2018-12-23T23:51:31.603Z,8.80
2018-12-23T23:54:02.067Z,8.80
2018-12-23T23:56:32.259Z,8.23
2018-12-23T23:59:02.559Z,8.93
